Sebastian Kęska     KTS Weszło Warszawa
ImięSebastian
NazwiskoKęska
Kraj Polska
Data urodzenia3 grudnia 1980 (38 lat)
Miejsce urodzenia Otwock
Wzrost / waga172 cm / 70 kg
Obecny klubKTS Weszło Warszawa
Fot: Jakub ZającPozycjapomocnikKTS Weszło Warszawa

Występy:  1998/99  1999/00  2000/01  2001/02  2002/03  2003/04  2004/05  2005/06  2006/07  2007/08  2008/09  2009/10  2010/11 

Kariera

Sezon 2006/07

data rozgrywki gospodarze wynik goście nr grał kartki akcje
2006-07-29 19:00Ekstraklasa, Kolejka 1 Łódzki KS 4-0 Pogoń Szczecin 151-73ŻK
2006-08-05 19:00Ekstraklasa, Kolejka 2 Łódzki KS 0-0 Górnik Łęczna 151-77ŻK
2006-08-11 20:00Ekstraklasa, Kolejka 3 Widzew Łódź 2-1 Łódzki KS 1571-90
2006-08-19 20:00Ekstraklasa, Kolejka 4 Łódzki KS 2-1 Legia Warszawa 1561-90
2006-08-22 17:00PP, I runda Szczakowianka Jaworzno 1-3 Łódzki KS 1-68ŻK
2006-08-26 19:00Ekstraklasa, Kolejka 5 Odra Wodzisław Śląski 1-2 Łódzki KS 1583-90
2006-09-15 20:00Ekstraklasa, Kolejka 7 Cracovia 1-1 Łódzki KS 1570-90
2006-09-20 19:00PP, 1/16 finału Łódzki KS 2-1 Górnik Łęczna 1-90
2006-09-23 18:00Ekstraklasa, Kolejka 8 Łódzki KS 1-1 Dyskobolia Grodzisk Wielkopolski 1587-90
2006-09-29 20:00Ekstraklasa, Kolejka 9 GKS Bełchatów 1-2 Łódzki KS 1573-90ŻK
2006-10-13 20:00Ekstraklasa, Kolejka 10 Lech Poznań 4-0 Łódzki KS 1581-90
2006-10-21 18:00Ekstraklasa, Kolejka 11 Łódzki KS 2-0 Górnik Zabrze 1576-90
2006-10-24 19:00PP, 1/8 finału Łódzki KS 0-1 Radomiak Radom 63-90
2006-10-28 18:00Ekstraklasa, Kolejka 12 Arka Gdynia 0-0 Łódzki KS 1571-90
2006-11-03 19:00Ekstraklasa, Kolejka 13 Łódzki KS 0-0 Wisła Płock 151-90
2006-11-11 15:30Ekstraklasa, Kolejka 14 Korona Kielce 1-0 Łódzki KS 1545-90
2007-02-24 19:40PE, Kolejka 4 Legia Warszawa 2-0 Łódzki KS 1565-90
2007-02-27 19:15PE, Kolejka 5 GKS Bełchatów 5-0 Łódzki KS 151-90
2007-03-06 18:00PE, Kolejka 6 Łódzki KS 3-1 Wisła Płock 151-22
2007-04-18 18:00Ekstraklasa, Kolejka 22 Łódzki KS 2-1 Cracovia 90-90
2007-04-21 18:00Ekstraklasa, Kolejka 23 Dyskobolia Grodzisk Wielkopolski 2-0 Łódzki KS 76-90
2007-04-29 17:15Ekstraklasa, Kolejka 24 Łódzki KS 0-1 GKS Bełchatów 1582-90
2007-05-05 18:00Ekstraklasa, Kolejka 25 Łódzki KS 1-2 Lech Poznań 83-90
2007-05-09 19:00Ekstraklasa, Kolejka 26 Górnik Zabrze 1-1 Łódzki KS 63-90
2007-05-26 18:00Ekstraklasa, Kolejka 30 Wisła Kraków 0-0 Łódzki KS 1560-90

drużyna rozgr. występy w "11" pełne rez. czas gry   karne sam. ŻK CK 
Łódzki KSEkstraklasa19311652400 (0 + 0)030
Łódzki KSPE321113800 (0 + 0)000
Łódzki KSPP321118600 (0 + 0)010
Łódzki KSRAZEM25731884800 (0 + 0)040